Time;durP1;ratioP1;P1;durP2;ratioP2;P2;SDS_P1;SDS_P2;PMS_P1;PMS_P2;Temp;Humidity;BMP_temperature;BMP_pressure;BME280_temperature;BME280_humidity;BME280_pressure;Samples;Min_cycle;Max_cycle;Signal;HPM_P1;HPM_P2
2021/05/26 00:01:20;;;;;;;;;;;;;;;15.95;71.48;99585.97;3483171;28;20028;-45
2021/05/26 00:03:02;;;;;;;;;;;;;;;15.92;71.23;99577.28;3483660;28;19935;-41
2021/05/26 00:04:43;;;;;;;;;;;;;;;15.90;71.47;99586.88;3483156;28;19968;-42
2021/05/26 00:06:24;;;;;;;;;;;;;;;15.86;71.20;99582.53;3482974;28;19987;-45
2021/05/26 00:08:05;;;;;;;;;;;;;;;15.82;70.96;99588.69;3483862;28;20023;-45
2021/05/26 00:09:46;;;;;;;;;;;;;;;15.79;71.58;99587.84;3482786;28;19932;-42
2021/05/26 00:11:28;;;;;;;;;;;;;;;15.74;71.95;99591.41;3483509;28;20424;-42
2021/05/26 00:13:10;;;;;;;;;;;;;;;15.71;71.89;99587.03;3480774;28;19951;-42
2021/05/26 00:14:51;;;;;;;;;;;;;;;15.67;70.96;99592.31;3483185;28;20011;-42
2021/05/26 00:16:32;;;;;;;;;;;;;;;15.67;71.53;99590.56;3482368;28;19935;-46
2021/05/26 00:18:13;;;;;;;;;;;;;;;15.65;71.75;99581.88;3482566;28;19929;-45
2021/05/26 00:19:55;;;;;;;;;;;;;;;15.65;71.84;99578.38;3483546;28;19963;-41
2021/05/26 00:21:36;;;;;;;;;;;;;;;15.65;72.21;99579.25;3482635;28;19932;-42
2021/05/26 00:23:17;;;;;;;;;;;;;;;15.64;72.36;99576.66;3483509;28;19928;-42
2021/05/26 00:24:58;;;;;;;;;;;;;;;15.63;72.53;99586.25;3482375;28;19933;-41
2021/05/26 00:26:39;;;;;;;;;;;;;;;15.61;72.85;99582.75;3482691;28;20436;-42
2021/05/26 00:28:21;;;;;;;;;;;;;;;15.62;71.62;99586.25;3483088;28;19929;-41
2021/05/26 00:30:03;;;;;;;;;;;;;;;15.62;72.95;99581.03;3482848;28;19937;-42
2021/05/26 00:31:44;;;;;;;;;;;;;;;15.60;73.58;99587.13;3483320;28;19979;-43
2021/05/26 00:33:25;;;;;;;;;;;;;;;15.60;73.15;99581.03;3482315;28;19935;-42
2021/05/26 00:35:09;;;;;;;;;;;;;;;15.58;73.04;99581.06;3483613;28;19933;-46
2021/05/26 00:36:50;;;;;;;;;;;;;;;15.58;73.76;99582.81;3482190;28;19959;-45
2021/05/26 00:38:31;;;;;;;;;;;;;;;15.58;72.89;99580.19;3483054;28;19932;-45
2021/05/26 00:40:13;;;;;;;;;;;;;;;15.59;73.52;99579.28;3482770;28;19929;-45
2021/05/26 00:41:54;;;;;;;;;;;;;;;15.59;72.99;99576.69;3482658;28;21203;-45
2021/05/26 00:43:36;;;;;;;;;;;;;;;15.62;73.00;99581.03;3482889;28;19951;-45
2021/05/26 00:45:17;;;;;;;;;;;;;;;15.60;73.40;99579.28;3481458;28;20385;-45
2021/05/26 00:46:58;;;;;;;;;;;;;;;15.60;72.56;99578.44;3483276;28;19929;-46
2021/05/26 00:48:40;;;;;;;;;;;;;;;15.60;73.53;99578.44;3482206;28;19990;-45
2021/05/26 00:50:22;;;;;;;;;;;;;;;15.59;73.42;99577.56;3482754;28;19972;-45
2021/05/26 00:52:03;;;;;;;;;;;;;;;15.58;73.57;99578.44;3482561;28;19964;-42
2021/05/26 00:53:44;;;;;;;;;;;;;;;15.57;73.67;99579.28;3482453;28;19932;-42
2021/05/26 00:55:26;;;;;;;;;;;;;;;15.56;74.54;99574.94;3483298;28;19933;-42
2021/05/26 00:57:07;;;;;;;;;;;;;;;15.55;74.42;99581.03;3481884;28;19932;-45
2021/05/26 00:58:49;;;;;;;;;;;;;;;15.54;74.33;99574.09;3483896;28;19929;-42
2021/05/26 01:00:31;;;;;;;;;;;;;;;15.51;73.91;99566.25;3481995;28;19964;-45
2021/05/26 01:02:12;;;;;;;;;;;;;;;15.49;73.83;99572.38;3482756;28;19968;-45
2021/05/26 01:03:54;;;;;;;;;;;;;;;15.48;74.33;99568.03;3482344;28;20390;-46
2021/05/26 01:05:35;;;;;;;;;;;;;;;15.48;73.67;99562.81;3482503;28;20524;-41
2021/05/26 01:07:16;;;;;;;;;;;;;;;15.48;74.24;99568.03;3482745;28;20440;-42
2021/05/26 01:08:57;;;;;;;;;;;;;;;15.47;74.13;99555.84;3482692;28;19933;-46
2021/05/26 01:10:39;;;;;;;;;;;;;;;15.46;74.89;99554.97;3483193;28;20329;-46
2021/05/26 01:12:20;;;;;;;;;;;;;;;15.46;74.23;99562.81;3482018;28;20434;-42
2021/05/26 01:14:02;;;;;;;;;;;;;;;15.48;74.84;99562.81;3481723;28;20401;-45
2021/05/26 01:15:43;;;;;;;;;;;;;;;15.48;74.72;99550.59;3481491;28;19929;-42
2021/05/26 01:17:24;;;;;;;;;;;;;;;15.48;75.19;99558.44;3482380;28;20406;-43
2021/05/26 01:19:06;;;;;;;;;;;;;;;15.47;74.43;99556.72;3482826;28;19933;-45
2021/05/26 01:20:47;;;;;;;;;;;;;;;15.49;74.90;99551.44;3481954;28;20006;-47
2021/05/26 01:22:29;;;;;;;;;;;;;;;15.52;74.53;99556.66;3482484;28;20393;-46
2021/05/26 01:24:10;;;;;;;;;;;;;;;15.53;75.12;99545.34;3481792;28;19976;-45
2021/05/26 01:25:52;;;;;;;;;;;;;;;15.56;74.95;99551.41;3483140;28;19936;-45
2021/05/26 01:27:34;;;;;;;;;;;;;;;15.58;75.42;99549.69;3481603;28;19929;-45
2021/05/26 01:29:15;;;;;;;;;;;;;;;15.62;75.32;99547.91;3482150;28;20536;-46
2021/05/26 01:30:57;;;;;;;;;;;;;;;15.60;74.73;99542.69;3482516;28;19979;-46
2021/05/26 01:32:40;;;;;;;;;;;;;;;15.61;75.07;99543.53;3481564;28;19929;-45
2021/05/26 01:34:21;;;;;;;;;;;;;;;15.63;75.32;99543.53;3482834;28;19929;-45
2021/05/26 01:36:03;;;;;;;;;;;;;;;15.62;75.01;99552.28;3481478;28;20294;-46
2021/05/26 01:37:46;;;;;;;;;;;;;;;15.62;74.20;99547.03;3482865;28;20398;-45
2021/05/26 01:39:27;;;;;;;;;;;;;;;15.59;74.81;99545.31;3481863;28;19929;-45
2021/05/26 01:41:08;;;;;;;;;;;;;;;15.58;75.09;99548.81;3481822;28;19933;-45
2021/05/26 01:42:49;;;;;;;;;;;;;;;15.55;75.00;99539.19;3482444;28;20414;-45
2021/05/26 01:44:34;;;;;;;;;;;;;;;15.53;74.75;99540.97;3481539;28;19935;-46
2021/05/26 01:46:16;;;;;;;;;;;;;;;15.51;75.30;99542.72;3482672;28;19976;-45
2021/05/26 01:47:57;;;;;;;;;;;;;;;15.49;75.82;99551.44;3481641;28;19928;-46
2021/05/26 01:49:38;;;;;;;;;;;;;;;15.46;75.84;99546.28;3482602;28;19964;-45
2021/05/26 01:51:20;;;;;;;;;;;;;;;15.41;75.92;99546.31;3481836;28;19929;-45
2021/05/26 01:53:03;;;;;;;;;;;;;;;15.38;76.27;99551.53;3482143;28;20234;-45
2021/05/26 01:54:44;;;;;;;;;;;;;;;15.36;76.60;99555.91;3482960;28;19936;-45
2021/05/26 01:56:25;;;;;;;;;;;;;;;15.33;76.34;99545.47;3481562;28;19932;-46
2021/05/26 01:58:07;;;;;;;;;;;;;;;15.31;75.63;99549.84;3484952;28;19932;-45
2021/05/26 01:59:48;;;;;;;;;;;;;;;15.29;75.72;99546.38;3483868;28;19936;-45
2021/05/26 02:01:29;;;;;;;;;;;;;;;15.28;75.87;99544.69;3485074;28;19975;-42
2021/05/26 02:03:10;;;;;;;;;;;;;;;15.27;76.00;99540.31;3483034;28;19936;-41
2021/05/26 02:04:53;;;;;;;;;;;;;;;15.26;76.54;99542.06;3484669;28;20527;-45
2021/05/26 02:06:34;;;;;;;;;;;;;;;15.26;77.04;99539.47;3484602;28;20167;-45
2021/05/26 02:08:16;;;;;;;;;;;;;;;15.23;76.29;99535.09;3483926;28;19983;-46
2021/05/26 02:09:57;;;;;;;;;;;;;;;15.25;76.83;99531.63;3471591;28;19933;-46
2021/05/26 02:13:37;;;;;;;;;;;;;;;15.23;77.70;99532.50;3482975;28;19935;-45
2021/05/26 02:15:18;;;;;;;;;;;;;;;15.24;78.04;99525.50;3484499;28;19929;-42
2021/05/26 02:16:59;;;;;;;;;;;;;;;15.23;77.82;99526.41;3484118;28;19928;-42
2021/05/26 02:18:40;;;;;;;;;;;;;;;15.23;77.75;99526.41;3484683;28;19936;-45
2021/05/26 02:20:21;;;;;;;;;;;;;;;15.24;77.02;99522.91;3483463;28;19979;-45
2021/05/26 02:22:03;;;;;;;;;;;;;;;15.26;77.45;99526.38;3485229;28;19929;-43
2021/05/26 02:23:45;;;;;;;;;;;;;;;15.28;77.74;99527.25;3484001;28;19936;-46
2021/05/26 02:25:26;;;;;;;;;;;;;;;15.30;78.07;99524.63;3484602;28;19975;-42
2021/05/26 02:27:07;;;;;;;;;;;;;;;15.32;78.64;99525.47;3483919;28;20393;-42
2021/05/26 02:28:48;;;;;;;;;;;;;;;15.32;77.81;99526.31;3483904;28;19932;-42
2021/05/26 02:30:29;;;;;;;;;;;;;;;15.34;78.39;99529.78;3484806;28;19960;-42
2021/05/26 02:32:11;;;;;;;;;;;;;;;15.35;77.58;99533.28;3483382;28;20397;-42
2021/05/26 02:33:52;;;;;;;;;;;;;;;15.37;77.90;99540.22;3485106;28;20018;-41
2021/05/26 02:35:34;;;;;;;;;;;;;;;15.39;78.06;99540.22;3483483;28;20321;-42
2021/05/26 02:37:15;;;;;;;;;;;;;;;15.40;77.64;99549.81;3484322;28;19967;-42
2021/05/26 02:38:57;;;;;;;;;;;;;;;15.42;77.79;99550.66;3484156;28;19933;-42
2021/05/26 02:40:38;;;;;;;;;;;;;;;15.45;77.97;99547.13;3483598;28;20374;-42
2021/05/26 02:42:19;;;;;;;;;;;;;;;15.47;77.83;99542.75;3483285;28;20306;-42
2021/05/26 02:44:00;;;;;;;;;;;;;;;15.49;77.53;99549.72;3483964;28;19929;-45
2021/05/26 02:45:41;;;;;;;;;;;;;;;15.51;76.97;99550.56;3484806;28;19944;-45
2021/05/26 02:47:23;;;;;;;;;;;;;;;15.55;77.42;99546.19;3483215;28;19983;-46
2021/05/26 02:49:05;;;;;;;;;;;;;;;15.59;76.57;99551.44;3484402;28;19971;-42
2021/05/26 02:50:46;;;;;;;;;;;;;;;15.64;77.66;99545.28;3484184;28;19928;-42
2021/05/26 02:52:28;;;;;;;;;;;;;;;15.68;76.72;99544.34;3483709;28;19936;-42
2021/05/26 02:54:10;;;;;;;;;;;;;;;15.74;76.65;99546.94;3483720;28;20357;-45
2021/05/26 02:55:51;;;;;;;;;;;;;;;15.80;77.08;99546.84;3483599;28;19983;-42
2021/05/26 02:57:32;;;;;;;;;;;;;;;15.85;76.73;99541.59;3484713;28;20382;-45
2021/05/26 02:59:13;;;;;;;;;;;;;;;15.89;76.98;99541.53;3483707;28;19932;-41
2021/05/26 03:00:55;;;;;;;;;;;;;;;15.94;76.69;99544.97;3484173;28;19936;-45
2021/05/26 03:02:36;;;;;;;;;;;;;;;16.00;76.32;99535.31;3483376;28;19972;-45
2021/05/26 03:04:17;;;;;;;;;;;;;;;16.04;76.76;99529.19;3483592;28;19933;-46
2021/05/26 03:05:58;;;;;;;;;;;;;;;16.08;75.68;99516.03;3484311;28;19951;-45
2021/05/26 03:07:40;;;;;;;;;;;;;;;16.14;75.22;99509.88;3484492;28;19928;-45
2021/05/26 03:09:22;;;;;;;;;;;;;;;16.20;74.87;99506.34;3483736;28;19928;-42
2021/05/26 03:11:03;;;;;;;;;;;;;;;16.27;74.53;99505.38;3483805;28;20345;-42
2021/05/26 03:12:44;;;;;;;;;;;;;;;16.34;75.37;99509.66;3483895;28;19972;-42
2021/05/26 03:14:25;;;;;;;;;;;;;;;16.38;74.73;99510.47;3482546;28;20397;-42
2021/05/26 03:16:08;;;;;;;;;;;;;;;16.42;74.58;99514.78;3483286;28;19929;-42
2021/05/26 03:17:49;;;;;;;;;;;;;;;16.44;74.10;99507.75;3484637;28;19928;-42
2021/05/26 03:19:30;;;;;;;;;;;;;;;16.47;73.86;99510.34;3483113;28;19929;-42
2021/05/26 03:21:11;;;;;;;;;;;;;;;16.51;73.41;99509.41;3484453;28;19935;-46
2021/05/26 03:22:52;;;;;;;;;;;;;;;16.55;73.49;99511.13;3484270;28;19928;-42
2021/05/26 03:24:34;;;;;;;;;;;;;;;16.59;73.26;99507.56;3484264;28;19935;-42
2021/05/26 03:26:15;;;;;;;;;;;;;;;16.63;72.89;99509.25;3484059;28;19929;-46
2021/05/26 03:27:57;;;;;;;;;;;;;;;16.66;72.42;99510.97;3483826;28;19979;-43
2021/05/26 03:29:38;;;;;;;;;;;;;;;16.69;72.45;99511.81;3484222;28;19935;-45
2021/05/26 03:31:19;;;;;;;;;;;;;;;16.71;72.62;99515.25;3483692;28;20405;-45
2021/05/26 03:33:00;;;;;;;;;;;;;;;16.75;72.73;99523.97;3484607;28;19933;-46
2021/05/26 03:34:42;;;;;;;;;;;;;;;16.77;72.57;99532.66;3483543;28;19936;-42
2021/05/26 03:36:23;;;;;;;;;;;;;;;16.78;73.08;99537.03;3483964;28;19972;-44
2021/05/26 03:38:04;;;;;;;;;;;;;;;16.79;73.58;99540.50;3482861;28;20030;-42
2021/05/26 03:39:46;;;;;;;;;;;;;;;16.80;73.22;99553.59;3483699;28;19964;-42
2021/05/26 03:41:27;;;;;;;;;;;;;;;16.80;73.95;99555.34;3483386;28;19976;-42
2021/05/26 03:43:08;;;;;;;;;;;;;;;16.79;74.40;99564.09;3483083;28;19936;-45
2021/05/26 03:44:50;;;;;;;;;;;;;;;16.79;74.53;99580.66;3484475;28;19968;-45
2021/05/26 03:46:31;;;;;;;;;;;;;;;16.80;74.84;99590.28;3482949;28;19975;-42
2021/05/26 03:48:12;;;;;;;;;;;;;;;16.79;73.88;99601.63;3483861;28;19929;-42
2021/05/26 03:49:54;;;;;;;;;;;;;;;16.71;74.38;99600.84;3482898;28;19929;-42
2021/05/26 03:51:35;;;;;;;;;;;;;;;16.65;74.96;99593.94;3482888;28;20001;-42
2021/05/26 03:53:16;;;;;;;;;;;;;;;16.62;75.58;99593.06;3483652;28;19928;-42
2021/05/26 03:54:58;;;;;;;;;;;;;;;16.59;75.44;99586.13;3482944;28;19959;-42
2021/05/26 03:56:41;;;;;;;;;;;;;;;16.60;75.36;99595.75;3483605;28;19935;-42
2021/05/26 03:58:22;;;;;;;;;;;;;;;16.62;74.87;99599.22;3482380;28;20316;-42
2021/05/26 04:00:05;;;;;;;;;;;;;;;16.63;75.56;99598.31;3484034;28;19960;-42
2021/05/26 04:01:46;;;;;;;;;;;;;;;16.66;76.25;99607.88;3482570;28;20015;-45
2021/05/26 04:03:27;;;;;;;;;;;;;;;16.67;76.37;99604.38;3482986;28;19933;-45
2021/05/26 04:05:09;;;;;;;;;;;;;;;16.68;76.32;99606.97;3483641;28;20017;-42
2021/05/26 04:06:50;;;;;;;;;;;;;;;16.72;76.65;99607.81;3482805;28;19935;-42
2021/05/26 04:08:31;;;;;;;;;;;;;;;16.72;76.73;99611.31;3483734;28;19929;-45
2021/05/26 04:10:13;;;;;;;;;;;;;;;16.73;76.95;99614.78;3483064;28;20352;-42
2021/05/26 04:11:55;;;;;;;;;;;;;;;16.72;77.65;99616.56;3483166;28;19929;-42
2021/05/26 04:13:36;;;;;;;;;;;;;;;16.73;77.62;99613.03;3481370;28;20344;-42
2021/05/26 04:15:17;;;;;;;;;;;;;;;16.75;78.16;99615.66;3483219;28;19933;-42
2021/05/26 04:16:58;;;;;;;;;;;;;;;16.74;78.36;99613.88;3483289;28;20368;-42
2021/05/26 04:18:39;;;;;;;;;;;;;;;16.72;79.09;99616.56;3482658;28;19975;-45
2021/05/26 04:20:20;;;;;;;;;;;;;;;16.70;78.91;99618.28;3483476;28;20421;-46
2021/05/26 04:22:01;;;;;;;;;;;;;;;16.69;79.45;99616.56;3482256;28;20390;-46
2021/05/26 04:23:42;;;;;;;;;;;;;;;16.69;79.39;99606.09;3483562;28;20415;-42
2021/05/26 04:25:24;;;;;;;;;;;;;;;16.71;80.32;99616.56;3483234;28;19928;-42
2021/05/26 04:27:06;;;;;;;;;;;;;;;16.71;79.61;99611.31;3482706;28;19929;-45
2021/05/26 04:28:47;;;;;;;;;;;;;;;16.70;79.82;99607.81;3483222;28;19967;-47
2021/05/26 04:30:28;;;;;;;;;;;;;;;16.73;80.42;99604.31;3482382;28;19932;-46
2021/05/26 04:32:09;;;;;;;;;;;;;;;16.76;80.49;99606.03;3483715;28;19935;-42
2021/05/26 04:33:50;;;;;;;;;;;;;;;16.80;80.31;99600.75;3482529;28;19929;-42
2021/05/26 04:35:31;;;;;;;;;;;;;;;16.85;79.45;99595.47;3483254;28;19928;-41
2021/05/26 04:37:13;;;;;;;;;;;;;;;16.89;79.09;99599.78;3482440;28;19929;-42
2021/05/26 04:38:54;;;;;;;;;;;;;;;16.92;79.76;99595.34;3482612;28;20015;-42
2021/05/26 04:40:36;;;;;;;;;;;;;;;16.95;79.54;99607.53;3482142;28;20291;-41
2021/05/26 04:42:17;;;;;;;;;;;;;;;16.98;79.96;99611.88;3481938;28;19932;-42
2021/05/26 04:43:58;;;;;;;;;;;;;;;16.98;79.45;99615.38;3483764;28;19928;-45
2021/05/26 04:45:39;;;;;;;;;;;;;;;16.99;79.92;99618.84;3482073;28;19968;-45
2021/05/26 04:47:20;;;;;;;;;;;;;;;16.99;80.49;99611.88;3483475;28;20103;-45
2021/05/26 04:49:02;;;;;;;;;;;;;;;17.00;80.29;99612.72;3481952;28;19929;-45
2021/05/26 04:50:43;;;;;;;;;;;;;;;17.03;80.49;99623.19;3482479;28;19928;-45
2021/05/26 04:52:24;;;;;;;;;;;;;;;17.01;80.32;99619.72;3482897;28;19928;-42
2021/05/26 04:54:06;;;;;;;;;;;;;;;16.98;80.07;99622.38;3482448;28;19968;-42
2021/05/26 04:55:47;;;;;;;;;;;;;;;16.96;80.57;99621.53;3483239;28;19972;-42
2021/05/26 04:57:29;;;;;;;;;;;;;;;16.92;80.48;99628.56;3481873;28;19979;-41
2021/05/26 04:59:11;;;;;;;;;;;;;;;16.88;80.49;99618.97;3482406;28;20390;-42
2021/05/26 05:00:52;;;;;;;;;;;;;;;16.84;80.32;99618.16;3482597;28;20467;-47
2021/05/26 05:02:33;;;;;;;;;;;;;;;16.82;80.68;99619.06;3482289;28;19933;-46
2021/05/26 05:04:14;;;;;;;;;;;;;;;16.81;80.92;99615.59;3483015;28;19928;-46
2021/05/26 05:05:56;;;;;;;;;;;;;;;16.81;81.39;99615.59;3482142;28;19936;-46
2021/05/26 05:07:37;;;;;;;;;;;;;;;16.80;81.72;99616.47;3482962;28;19929;-46
2021/05/26 05:09:18;;;;;;;;;;;;;;;16.82;81.53;99601.59;3481944;28;19964;-46
2021/05/26 05:11:00;;;;;;;;;;;;;;;16.86;81.03;99605.03;3482970;28;19963;-44
2021/05/26 05:12:42;;;;;;;;;;;;;;;16.88;81.21;99613.75;3481179;28;20421;-47
2021/05/26 05:14:23;;;;;;;;;;;;;;;16.91;81.19;99611.94;3480723;28;19967;-46
2021/05/26 05:16:04;;;;;;;;;;;;;;;16.95;80.91;99607.53;3482894;28;19929;-43
2021/05/26 05:17:46;;;;;;;;;;;;;;;17.03;81.04;99613.56;3481887;28;20421;-43
2021/05/26 05:19:27;;;;;;;;;;;;;;;17.09;80.59;99608.25;3483021;28;19966;-43
2021/05/26 05:21:08;;;;;;;;;;;;;;;17.15;79.52;99604.66;3482428;28;19932;-46
2021/05/26 05:22:50;;;;;;;;;;;;;;;17.21;79.22;99606.31;3482561;28;19928;-45
2021/05/26 05:24:31;;;;;;;;;;;;;;;17.28;79.41;99611.44;3482055;28;19929;-46
2021/05/26 05:26:13;;;;;;;;;;;;;;;17.30;79.14;99620.16;3482047;28;19932;-46
2021/05/26 05:27:54;;;;;;;;;;;;;;;17.33;79.49;99627.13;3482962;28;19929;-46
2021/05/26 05:29:35;;;;;;;;;;;;;;;17.35;79.18;99633.19;3481799;28;19968;-46
2021/05/26 05:31:16;;;;;;;;;;;;;;;17.37;78.89;99627.94;3482198;28;19932;-46
2021/05/26 05:32:58;;;;;;;;;;;;;;;17.38;79.16;99625.28;3481741;28;19984;-46
2021/05/26 05:34:39;;;;;;;;;;;;;;;17.41;78.62;99630.50;3482367;28;20372;-46
2021/05/26 05:36:20;;;;;;;;;;;;;;;17.45;78.71;99642.66;3481831;28;20389;-47
2021/05/26 05:38:01;;;;;;;;;;;;;;;17.49;79.24;99640.88;3481854;28;19975;-47
2021/05/26 05:39:42;;;;;;;;;;;;;;;17.52;79.02;99634.69;3482865;28;19975;-45
2021/05/26 05:41:24;;;;;;;;;;;;;;;17.57;78.54;99630.25;3481423;28;19980;-47
2021/05/26 05:43:05;;;;;;;;;;;;;;;17.67;78.83;99632.69;3482842;28;19983;-43
2021/05/26 05:44:46;;;;;;;;;;;;;;;17.75;78.53;99637.84;3481598;28;19929;-44
2021/05/26 05:46:28;;;;;;;;;;;;;;;17.88;78.51;99629.81;3482335;28;20021;-44
2021/05/26 05:48:13;;;;;;;;;;;;;;;18.01;78.00;99629.56;3482909;28;19929;-47
2021/05/26 05:49:54;;;;;;;;;;;;;;;18.13;77.15;99617.97;3481889;28;19982;-46
2021/05/26 05:51:35;;;;;;;;;;;;;;;18.21;76.74;99621.31;3482437;28;20027;-44
2021/05/26 05:53:16;;;;;;;;;;;;;;;18.33;76.86;99624.59;3481890;28;19936;-47
2021/05/26 05:54:58;;;;;;;;;;;;;;;18.42;76.21;99624.47;3482882;28;19932;-47
2021/05/26 05:56:39;;;;;;;;;;;;;;;18.51;76.05;99629.53;3481293;28;20410;-46
2021/05/26 05:58:24;;;;;;;;;;;;;;;18.65;75.78;99631.88;3482381;28;19968;-44
2021/05/26 06:00:06;;;;;;;;;;;;;;;18.80;74.05;99643.84;3481837;28;19936;-44
2021/05/26 06:01:47;;;;;;;;;;;;;;;18.86;73.68;99643.75;3482230;28;19940;-44
2021/05/26 06:03:28;;;;;;;;;;;;;;;18.91;74.57;99641.91;3482378;28;19933;-44
2021/05/26 06:05:12;;;;;;;;;;;;;;;19.03;74.12;99638.13;3481255;28;19987;-42
2021/05/26 06:06:53;;;;;;;;;;;;;;;19.18;72.75;99639.59;3482862;28;19928;-44
2021/05/26 06:08:35;;;;;;;;;;;;;;;19.38;73.92;99647.00;3481668;28;19929;-46
2021/05/26 06:10:16;;;;;;;;;;;;;;;19.59;71.89;99643.03;3481503;28;19928;-47
2021/05/26 06:11:59;;;;;;;;;;;;;;;19.76;71.67;99640.84;3482179;28;19929;-46
2021/05/26 06:13:42;;;;;;;;;;;;;;;19.85;69.79;99641.56;3480200;28;19940;-47
2021/05/26 06:15:23;;;;;;;;;;;;;;;19.88;70.01;99634.47;3482648;28;19972;-44
2021/05/26 06:17:04;;;;;;;;;;;;;;;19.91;69.45;99646.66;3481136;28;19928;-44
2021/05/26 06:18:45;;;;;;;;;;;;;;;19.88;68.09;99641.47;3482812;28;19933;-46
2021/05/26 06:20:27;;;;;;;;;;;;;;;19.79;68.83;99647.78;3481358;28;20187;-44
2021/05/26 06:22:08;;;;;;;;;;;;;;;19.69;69.49;99646.31;3481526;28;19995;-44
2021/05/26 06:23:49;;;;;;;;;;;;;;;19.61;70.12;99653.50;3482027;28;19929;-44
2021/05/26 06:25:30;;;;;;;;;;;;;;;19.54;69.88;99658.06;3481069;28;19939;-44
2021/05/26 06:27:12;;;;;;;;;;;;;;;19.52;70.60;99655.44;3482446;28;19936;-44
2021/05/26 06:28:53;;;;;;;;;;;;;;;19.53;70.85;99656.31;3481476;28;19972;-46
2021/05/26 06:30:35;;;;;;;;;;;;;;;19.46;69.02;99658.25;3482363;28;19936;-46
2021/05/26 06:32:16;;;;;;;;;;;;;;;19.40;69.11;99654.88;3481370;28;20382;-44
2021/05/26 06:33:57;;;;;;;;;;;;;;;19.33;68.85;99655.00;3481736;28;20425;-44
2021/05/26 06:35:41;;;;;;;;;;;;;;;19.31;69.56;99656.81;3481332;28;19964;-45
2021/05/26 06:37:22;;;;;;;;;;;;;;;19.32;69.39;99655.91;3481680;28;19979;-47
2021/05/26 06:39:04;;;;;;;;;;;;;;;19.35;69.02;99655.84;3482583;28;20398;-44
2021/05/26 06:40:45;;;;;;;;;;;;;;;19.38;69.00;99663.66;3481589;28;19964;-45
2021/05/26 06:42:27;;;;;;;;;;;;;;;19.43;69.03;99660.06;3482271;28;19976;-46
2021/05/26 06:44:08;;;;;;;;;;;;;;;19.50;69.45;99661.66;3481552;28;19980;-46
2021/05/26 06:45:49;;;;;;;;;;;;;;;19.55;68.82;99662.44;3484860;28;19933;-45
2021/05/26 06:47:30;;;;;;;;;;;;;;;19.59;68.26;99665.84;3484738;28;19928;-46
2021/05/26 06:49:11;;;;;;;;;;;;;;;19.59;68.53;99671.97;3483755;28;19968;-46
2021/05/26 06:50:52;;;;;;;;;;;;;;;19.57;68.26;99666.75;3483769;28;19929;-44
2021/05/26 06:52:34;;;;;;;;;;;;;;;19.55;69.42;99670.31;3483260;28;19929;-45
2021/05/26 06:54:20;;;;;;;;;;;;;;;19.55;68.38;99670.31;3484857;28;20436;-45
2021/05/26 06:56:01;;;;;;;;;;;;;;;19.56;68.56;99665.03;3483703;28;19936;-46
2021/05/26 06:57:43;;;;;;;;;;;;;;;19.62;69.37;99660.50;3483807;28;19929;-46
2021/05/26 06:59:24;;;;;;;;;;;;;;;19.73;68.84;99666.38;3484829;28;20287;-46
2021/05/26 07:01:05;;;;;;;;;;;;;;;19.80;67.73;99662.69;3483849;28;19978;-44
2021/05/26 07:02:46;;;;;;;;;;;;;;;19.84;67.72;99669.66;3484745;28;19928;-44
2021/05/26 07:04:27;;;;;;;;;;;;;;;19.83;68.14;99662.66;3483611;28;20401;-48
2021/05/26 07:06:09;;;;;;;;;;;;;;;19.81;68.09;99674.09;3484666;28;19944;-46
2021/05/26 07:07:50;;;;;;;;;;;;;;;19.73;68.16;99680.41;3484291;28;20381;-45
2021/05/26 07:09:31;;;;;;;;;;;;;;;19.65;68.33;99684.97;3483862;28;19936;-44
2021/05/26 07:11:12;;;;;;;;;;;;;;;19.62;69.13;99679.81;3483859;28;19932;-44
2021/05/26 07:12:54;;;;;;;;;;;;;;;19.53;68.99;99688.78;3484423;28;19929;-46
2021/05/26 07:14:37;;;;;;;;;;;;;;;19.51;69.03;99694.94;3483480;28;19929;-44
2021/05/26 07:16:18;;;;;;;;;;;;;;;19.47;69.17;99694.16;3483060;28;20345;-47
2021/05/26 07:18:03;;;;;;;;;;;;;;;19.45;70.46;99695.97;3484981;28;19916;-44
2021/05/26 07:19:44;;;;;;;;;;;;;;;19.48;70.30;99697.69;3483501;28;19936;-44
2021/05/26 07:21:26;;;;;;;;;;;;;;;19.46;69.45;99695.06;3483293;28;20388;-45
2021/05/26 07:23:07;;;;;;;;;;;;;;;19.44;69.85;99693.34;3485025;28;19933;-45
2021/05/26 07:24:48;;;;;;;;;;;;;;;19.38;70.14;99699.63;3483746;28;19977;-48
2021/05/26 07:26:30;;;;;;;;;;;;;;;19.34;70.71;99703.25;3484966;28;20360;-43
2021/05/26 07:28:12;;;;;;;;;;;;;;;19.30;70.45;99704.19;3483521;28;19975;-45
2021/05/26 07:29:53;;;;;;;;;;;;;;;19.28;71.00;99701.59;3484564;28;20385;-45
2021/05/26 07:31:34;;;;;;;;;;;;;;;19.31;70.52;99701.53;3482973;28;19974;-45
2021/05/26 07:33:16;;;;;;;;;;;;;;;19.32;70.88;99703.25;3484060;28;19972;-43
2021/05/26 07:34:57;;;;;;;;;;;;;;;19.28;70.67;99700.72;3483805;28;19929;-44
2021/05/26 07:36:38;;;;;;;;;;;;;;;19.28;70.76;99708.59;3482860;28;19928;-45
2021/05/26 07:38:19;;;;;;;;;;;;;;;19.24;71.32;99707.81;3483934;28;20400;-47
2021/05/26 07:40:00;;;;;;;;;;;;;;;19.23;70.99;99710.47;3483560;28;19928;-46
2021/05/26 07:41:41;;;;;;;;;;;;;;;19.17;71.34;99709.69;3483999;28;19935;-47
2021/05/26 07:43:24;;;;;;;;;;;;;;;19.12;71.20;99708.94;3482716;28;19956;-47
2021/05/26 07:45:05;;;;;;;;;;;;;;;19.06;71.68;99709.06;3484124;28;19968;-45
2021/05/26 07:46:46;;;;;;;;;;;;;;;19.02;71.60;99710.03;3483709;28;20453;-46
2021/05/26 07:48:28;;;;;;;;;;;;;;;18.99;72.55;99713.56;3483118;28;20073;-46
2021/05/26 07:50:09;;;;;;;;;;;;;;;19.00;72.77;99710.06;3484104;28;19952;-45
2021/05/26 07:51:52;;;;;;;;;;;;;;;18.98;72.35;99709.22;3483098;28;19929;-46
2021/05/26 07:53:33;;;;;;;;;;;;;;;18.93;72.09;99715.44;3484829;28;19990;-44
2021/05/26 07:55:14;;;;;;;;;;;;;;;18.88;71.91;99715.56;3482090;28;20390;-44
2021/05/26 07:56:56;;;;;;;;;;;;;;;18.83;73.34;99720.00;3483359;28;19972;-46
2021/05/26 07:58:38;;;;;;;;;;;;;;;18.77;72.96;99718.38;3483507;28;19990;-44
2021/05/26 08:00:20;;;;;;;;;;;;;;;18.70;73.00;99716.75;3483066;28;20072;-42
2021/05/26 08:02:01;;;;;;;;;;;;;;;18.63;74.11;99723.03;3483549;28;19976;-45
2021/05/26 08:03:43;;;;;;;;;;;;;;;18.58;74.34;99720.47;3482816;28;19932;-44
2021/05/26 08:05:25;;;;;;;;;;;;;;;18.55;74.41;99728.41;3484364;28;19929;-44
2021/05/26 08:07:08;;;;;;;;;;;;;;;18.52;74.14;99733.69;3483516;28;19951;-44
2021/05/26 08:08:49;;;;;;;;;;;;;;;18.45;74.85;99734.69;3483476;28;19928;-44
2021/05/26 08:10:30;;;;;;;;;;;;;;;18.37;75.66;99723.47;3482910;28;19933;-44
2021/05/26 08:12:13;;;;;;;;;;;;;;;18.32;75.21;99731.44;3482877;28;20229;-46
2021/05/26 08:13:57;;;;;;;;;;;;;;;18.30;75.12;99729.75;3482175;28;20002;-44
2021/05/26 08:15:38;;;;;;;;;;;;;;;18.28;75.56;99728.88;3482550;28;20067;-44
2021/05/26 08:17:23;;;;;;;;;;;;;;;18.27;75.46;99735.88;3483507;28;19928;-45
2021/05/26 08:19:04;;;;;;;;;;;;;;;18.27;75.55;99738.50;3482597;28;19956;-43
2021/05/26 08:20:47;;;;;;;;;;;;;;;18.28;76.19;99736.75;3482880;28;19933;-46
2021/05/26 08:22:29;;;;;;;;;;;;;;;18.32;76.31;99738.44;3482304;28;19987;-45
2021/05/26 08:24:11;;;;;;;;;;;;;;;18.31;75.60;99739.34;3482544;28;19928;-46
2021/05/26 08:25:53;;;;;;;;;;;;;;;18.31;75.73;99748.09;3483461;28;19929;-45
2021/05/26 08:27:34;;;;;;;;;;;;;;;18.31;75.71;99737.59;3482401;28;19937;-44
2021/05/26 08:29:16;;;;;;;;;;;;;;;18.35;76.55;99735.78;3483608;28;19959;-44
2021/05/26 08:30:57;;;;;;;;;;;;;;;18.39;76.35;99732.19;3482437;28;19928;-44
2021/05/26 08:32:38;;;;;;;;;;;;;;;18.45;76.42;99726.81;3482662;28;19979;-44
2021/05/26 08:34:20;;;;;;;;;;;;;;;18.53;76.31;99719.69;3483092;28;19936;-44
2021/05/26 08:36:01;;;;;;;;;;;;;;;18.61;75.70;99717.78;3482459;28;19972;-43
2021/05/26 08:37:42;;;;;;;;;;;;;;;18.69;75.50;99717.63;3483332;28;19928;-43
2021/05/26 08:39:23;;;;;;;;;;;;;;;18.74;74.86;99726.31;3482206;28;19936;-43
2021/05/26 08:41:05;;;;;;;;;;;;;;;18.74;74.34;99725.44;3483125;28;19991;-43
2021/05/26 08:42:47;;;;;;;;;;;;;;;18.71;74.73;99726.34;3482338;28;20037;-45
2021/05/26 08:44:29;;;;;;;;;;;;;;;18.73;74.79;99727.19;3483405;28;20015;-43
2021/05/26 08:46:10;;;;;;;;;;;;;;;18.69;74.96;99722.03;3483365;28;19936;-43
2021/05/26 08:47:52;;;;;;;;;;;;;;;18.67;75.10;99729.09;3482753;28;19932;-45
2021/05/26 08:49:34;;;;;;;;;;;;;;;18.60;75.20;99725.69;3482494;28;19976;-45
2021/05/26 08:51:17;;;;;;;;;;;;;;;18.52;75.24;99731.06;3481907;28;20468;-45